createdAt,value
2018-05-21T00:00:30.454Z,16.32
2018-05-21T00:01:11.060Z,16.29
2018-05-21T00:01:51.629Z,16.32
2018-05-21T00:02:32.203Z,16.23
2018-05-21T00:03:12.768Z,16.28
2018-05-21T00:03:53.294Z,16.23
2018-05-21T00:04:33.848Z,16.21
2018-05-21T00:05:14.424Z,16.24
2018-05-21T00:05:54.985Z,16.2
2018-05-21T00:06:35.579Z,16.23
2018-05-21T00:07:16.134Z,16.24
2018-05-21T00:07:56.700Z,16.17
2018-05-21T00:08:37.256Z,16.21
2018-05-21T00:09:17.820Z,16.24
2018-05-21T00:09:58.374Z,16.1
2018-05-21T00:10:38.941Z,16.23
2018-05-21T00:11:19.517Z,16.21
2018-05-21T00:12:00.089Z,16.17
2018-05-21T00:12:40.652Z,16.16
2018-05-21T00:13:21.204Z,16.12
2018-05-21T00:14:01.771Z,16.12
2018-05-21T00:14:42.341Z,16.12
2018-05-21T00:15:22.883Z,16.13
2018-05-21T00:16:03.443Z,16.1
2018-05-21T00:16:44.012Z,16.17
2018-05-21T00:17:24.544Z,16.16
2018-05-21T00:18:05.105Z,16.13
2018-05-21T00:18:45.681Z,16.09
2018-05-21T00:19:26.235Z,16.12
2018-05-21T00:20:06.805Z,16.12
2018-05-21T00:20:47.365Z,16.09
2018-05-21T00:21:27.926Z,16.05
2018-05-21T00:22:08.500Z,16.09
2018-05-21T00:22:49.042Z,16.09
2018-05-21T00:23:29.608Z,16.1
2018-05-21T00:24:10.140Z,16.08
2018-05-21T00:24:50.713Z,16.05
2018-05-21T00:25:31.292Z,16
2018-05-21T00:26:11.855Z,15.97
2018-05-21T00:26:52.432Z,16
2018-05-21T00:27:33.021Z,16.01
2018-05-21T00:28:13.586Z,16.02
2018-05-21T00:28:54.144Z,16.01
2018-05-21T00:29:34.716Z,16
2018-05-21T00:30:15.273Z,15.91
2018-05-21T00:30:55.828Z,15.98
2018-05-21T00:31:36.382Z,16.01
2018-05-21T00:32:16.951Z,15.94
2018-05-21T00:32:57.510Z,15.95
2018-05-21T00:33:38.085Z,15.97
2018-05-21T00:34:18.664Z,15.88
2018-05-21T00:34:59.242Z,15.98
2018-05-21T00:35:39.782Z,15.86
2018-05-21T00:36:20.368Z,15.92
2018-05-21T00:37:00.940Z,15.9
2018-05-21T00:37:41.512Z,15.86
2018-05-21T00:38:22.080Z,15.83
2018-05-21T00:39:02.658Z,15.8
2018-05-21T00:39:43.196Z,15.84
2018-05-21T00:40:23.770Z,15.75
2018-05-21T00:41:04.368Z,15.84
2018-05-21T00:41:44.940Z,15.83
2018-05-21T00:42:25.486Z,15.8
2018-05-21T00:43:06.048Z,15.88
2018-05-21T00:43:46.600Z,15.8
2018-05-21T00:44:27.174Z,15.76
2018-05-21T00:45:07.726Z,15.75
2018-05-21T00:45:48.271Z,15.77
2018-05-21T00:46:28.828Z,15.79
2018-05-21T00:47:09.393Z,15.75
2018-05-21T00:47:49.957Z,15.8
2018-05-21T00:48:30.536Z,15.73
2018-05-21T00:49:11.112Z,15.79
2018-05-21T00:49:51.675Z,15.77
2018-05-21T00:50:32.236Z,15.79
2018-05-21T00:51:12.801Z,15.75
2018-05-21T00:51:53.383Z,15.82
2018-05-21T00:52:33.968Z,15.67
2018-05-21T00:53:14.507Z,15.73
2018-05-21T00:53:55.084Z,15.67
2018-05-21T00:54:35.641Z,15.72
2018-05-21T00:55:16.188Z,15.65
2018-05-21T00:55:56.762Z,15.72
2018-05-21T00:56:37.334Z,15.67
2018-05-21T00:57:17.898Z,15.7
2018-05-21T00:57:58.454Z,15.62
2018-05-21T00:58:39.009Z,15.67
2018-05-21T00:59:19.582Z,15.64
2018-05-21T01:00:00.137Z,15.64
2018-05-21T01:00:40.685Z,15.59
2018-05-21T01:01:21.246Z,15.64
2018-05-21T01:02:01.814Z,15.65
2018-05-21T01:02:42.384Z,15.58
2018-05-21T01:03:22.937Z,15.58
2018-05-21T01:04:03.498Z,15.59
2018-05-21T01:04:44.068Z,15.61
2018-05-21T01:05:24.624Z,15.58
2018-05-21T01:06:05.173Z,15.62
2018-05-21T01:06:45.725Z,15.61
2018-05-21T01:07:26.278Z,15.59
2018-05-21T01:08:06.872Z,15.55
2018-05-21T01:08:47.421Z,15.58
2018-05-21T01:09:27.989Z,15.59
2018-05-21T01:10:08.563Z,15.55
2018-05-21T01:10:49.130Z,15.57
2018-05-21T01:11:29.683Z,15.58
2018-05-21T01:12:10.250Z,15.57
2018-05-21T01:12:50.814Z,15.62
2018-05-21T01:13:31.366Z,15.54
2018-05-21T01:14:11.933Z,15.57
2018-05-21T01:14:52.509Z,15.57
2018-05-21T01:15:33.068Z,15.58
2018-05-21T01:16:13.641Z,15.52
2018-05-21T01:16:54.231Z,15.55
2018-05-21T01:17:34.831Z,15.52
2018-05-21T01:18:15.394Z,15.51
2018-05-21T01:18:55.943Z,15.51
2018-05-21T01:19:36.489Z,15.49
2018-05-21T01:20:17.057Z,15.44
2018-05-21T01:20:57.614Z,15.49
2018-05-21T01:21:38.196Z,15.44
2018-05-21T01:22:18.741Z,15.42
2018-05-21T01:22:59.297Z,15.36
2018-05-21T01:23:39.861Z,15.42
2018-05-21T01:24:20.423Z,15.35
2018-05-21T01:25:00.981Z,15.37
2018-05-21T01:25:41.547Z,15.42
2018-05-21T01:26:22.099Z,15.37
2018-05-21T01:27:02.660Z,15.51
2018-05-21T01:27:43.239Z,15.52
2018-05-21T01:28:23.797Z,15.47
2018-05-21T01:29:04.351Z,15.31
2018-05-21T01:29:44.940Z,15.31
2018-05-21T01:30:25.506Z,15.46
2018-05-21T01:31:06.076Z,15.35
2018-05-21T01:31:46.632Z,15.42
2018-05-21T01:32:27.223Z,15.36
2018-05-21T01:33:07.779Z,15.39
2018-05-21T01:33:48.350Z,15.36
2018-05-21T01:34:28.929Z,15.36
2018-05-21T01:35:09.481Z,15.4
2018-05-21T01:35:50.031Z,15.35
2018-05-21T01:36:30.580Z,15.35
2018-05-21T01:37:11.139Z,15.37
2018-05-21T01:37:51.703Z,15.33
2018-05-21T01:38:32.266Z,15.4
2018-05-21T01:39:12.827Z,15.33
2018-05-21T01:39:53.404Z,15.37
2018-05-21T01:40:33.961Z,15.46
2018-05-21T01:41:14.579Z,15.42
2018-05-21T01:41:55.160Z,15.43
2018-05-21T01:42:35.721Z,15.42
2018-05-21T01:43:16.292Z,15.33
2018-05-21T01:43:56.854Z,15.39
2018-05-21T01:44:37.403Z,15.36
2018-05-21T01:45:17.970Z,15.31
2018-05-21T01:45:58.509Z,15.39
2018-05-21T01:46:39.073Z,15.39
2018-05-21T01:47:19.658Z,15.37
2018-05-21T01:48:00.246Z,15.35
2018-05-21T01:48:40.816Z,15.39
2018-05-21T01:49:21.425Z,15.27
2018-05-21T01:50:01.992Z,15.28
2018-05-21T01:50:42.535Z,15.25
2018-05-21T01:51:23.102Z,15.39
2018-05-21T01:52:03.682Z,15.39
2018-05-21T01:52:44.237Z,15.31
2018-05-21T01:53:24.787Z,15.35
2018-05-21T01:54:05.359Z,15.31
2018-05-21T01:54:45.939Z,15.31
2018-05-21T01:55:26.515Z,15.33
2018-05-21T01:56:07.040Z,15.27
2018-05-21T01:56:47.601Z,15.28
2018-05-21T01:57:28.173Z,15.28
2018-05-21T01:58:08.736Z,15.27
2018-05-21T01:58:49.309Z,15.27
2018-05-21T01:59:29.873Z,15.33
2018-05-21T02:00:10.436Z,15.27
2018-05-21T02:00:51.029Z,15.28
2018-05-21T02:01:31.645Z,15.27
2018-05-21T02:02:12.206Z,15.27
2018-05-21T02:02:52.779Z,15.27
2018-05-21T02:03:33.368Z,15.24
2018-05-21T02:04:13.915Z,15.27
2018-05-21T02:04:54.478Z,15.25
2018-05-21T02:05:35.033Z,15.27
2018-05-21T02:06:15.597Z,15.27
2018-05-21T02:06:56.161Z,15.25
2018-05-21T02:07:36.724Z,15.22
2018-05-21T02:08:17.310Z,15.19
2018-05-21T02:08:57.851Z,15.18
2018-05-21T02:09:38.402Z,15.15
2018-05-21T02:10:18.988Z,15.21
2018-05-21T02:10:59.559Z,15.15
2018-05-21T02:11:40.126Z,15.18
2018-05-21T02:12:20.764Z,15.14
2018-05-21T02:13:01.280Z,15.14
2018-05-21T02:13:41.834Z,15.06
2018-05-21T02:14:22.402Z,15.09
2018-05-21T02:15:02.965Z,15.11
2018-05-21T02:15:43.528Z,15.11
2018-05-21T02:16:24.107Z,15.09
2018-05-21T02:17:04.673Z,15.17
2018-05-21T02:17:45.243Z,15.06
2018-05-21T02:18:25.799Z,15.14
2018-05-21T02:19:06.351Z,15.09
2018-05-21T02:19:46.907Z,15.1
2018-05-21T02:20:27.466Z,15.1
2018-05-21T02:21:08.025Z,15.11
2018-05-21T02:21:48.592Z,15.09
2018-05-21T02:22:29.157Z,15.15
2018-05-21T02:23:09.702Z,15.11
2018-05-21T02:23:50.293Z,15.07
2018-05-21T02:24:30.857Z,15.09
2018-05-21T02:25:11.433Z,15.1
2018-05-21T02:25:51.995Z,15.07
2018-05-21T02:26:32.531Z,15.11
2018-05-21T02:27:13.104Z,15.06
2018-05-21T02:27:53.677Z,15.03
2018-05-21T02:28:34.234Z,15.04
2018-05-21T02:29:14.810Z,15.1
2018-05-21T02:29:55.374Z,15
2018-05-21T02:30:35.972Z,14.99
2018-05-21T02:31:16.541Z,15
2018-05-21T02:31:57.106Z,15.02
2018-05-21T02:32:37.674Z,14.94
2018-05-21T02:33:18.244Z,14.99
2018-05-21T02:33:58.803Z,15.03
2018-05-21T02:34:39.361Z,15
2018-05-21T02:35:19.926Z,14.97
2018-05-21T02:36:00.476Z,14.99
2018-05-21T02:36:41.042Z,14.96
2018-05-21T02:37:21.611Z,14.99
2018-05-21T02:38:02.181Z,15.03
2018-05-21T02:38:42.735Z,14.96
2018-05-21T02:39:23.285Z,14.97
2018-05-21T02:40:03.850Z,14.97
2018-05-21T02:40:44.403Z,14.99
2018-05-21T02:41:24.957Z,15.02
2018-05-21T02:42:05.544Z,14.91
2018-05-21T02:42:46.077Z,14.96
2018-05-21T02:43:26.630Z,14.97
2018-05-21T02:44:07.187Z,14.91
2018-05-21T02:44:47.754Z,14.91
2018-05-21T02:45:28.337Z,14.88
2018-05-21T02:46:08.905Z,14.91
2018-05-21T02:46:49.473Z,14.86
2018-05-21T02:47:30.045Z,14.91
2018-05-21T02:48:10.638Z,14.91
2018-05-21T02:48:51.222Z,14.86
2018-05-21T02:49:31.792Z,14.89
2018-05-21T02:50:12.366Z,14.84
2018-05-21T02:50:52.953Z,14.89
2018-05-21T02:51:33.505Z,14.86
2018-05-21T02:52:14.079Z,14.88
2018-05-21T02:52:54.621Z,14.82
2018-05-21T02:53:35.223Z,14.86
2018-05-21T02:54:15.783Z,14.79
2018-05-21T02:54:56.361Z,14.89
2018-05-21T02:55:36.927Z,14.84
2018-05-21T02:56:17.500Z,14.78
2018-05-21T02:56:58.065Z,14.79
2018-05-21T02:57:38.627Z,14.81
2018-05-21T02:58:19.201Z,14.82
2018-05-21T02:58:59.768Z,14.81
2018-05-21T02:59:40.327Z,14.78
2018-05-21T03:00:20.889Z,14.69
2018-05-21T03:01:01.526Z,14.66
2018-05-21T03:01:42.091Z,14.7
2018-05-21T03:02:22.657Z,14.65
2018-05-21T03:03:03.213Z,14.7
2018-05-21T03:03:43.793Z,14.68
2018-05-21T03:04:24.380Z,14.69
2018-05-21T03:05:04.921Z,14.73
2018-05-21T03:05:45.484Z,14.66
2018-05-21T03:06:26.046Z,14.65
2018-05-21T03:07:06.642Z,14.69
2018-05-21T03:07:47.244Z,14.6
2018-05-21T03:08:27.806Z,14.65
2018-05-21T03:09:08.360Z,14.59
2018-05-21T03:09:48.925Z,14.54
2018-05-21T03:10:29.485Z,14.62
2018-05-21T03:11:10.119Z,14.54
2018-05-21T03:11:50.695Z,14.54
2018-05-21T03:12:31.272Z,14.48
2018-05-21T03:13:11.825Z,14.62
2018-05-21T03:13:52.401Z,14.5
2018-05-21T03:14:32.952Z,14.58
2018-05-21T03:15:13.506Z,14.54
2018-05-21T03:15:54.055Z,14.48
2018-05-21T03:16:34.607Z,14.63
2018-05-21T03:17:15.171Z,14.62
2018-05-21T03:17:55.733Z,14.5
2018-05-21T03:18:36.278Z,14.47
2018-05-21T03:19:16.843Z,14.47
2018-05-21T03:19:57.384Z,14.58
2018-05-21T03:20:37.984Z,14.51
2018-05-21T03:21:18.568Z,14.58
2018-05-21T03:21:59.158Z,14.44
2018-05-21T03:22:39.771Z,14.54
2018-05-21T03:23:20.313Z,14.4
2018-05-21T03:24:00.852Z,14.36
2018-05-21T03:24:41.410Z,14.33
2018-05-21T03:25:21.984Z,14.36
2018-05-21T03:26:02.536Z,14.43
2018-05-21T03:26:43.130Z,14.43
2018-05-21T03:27:23.694Z,14.35
2018-05-21T03:28:04.252Z,14.4
2018-05-21T03:28:44.811Z,14.43
2018-05-21T03:29:25.371Z,14.4
2018-05-21T03:30:05.921Z,14.37
2018-05-21T03:30:46.470Z,14.4
2018-05-21T03:31:27.033Z,14.32
2018-05-21T03:32:07.576Z,14.44
2018-05-21T03:32:48.133Z,14.36
2018-05-21T03:33:28.694Z,14.51
2018-05-21T03:34:09.256Z,14.35
2018-05-21T03:34:49.836Z,14.5
2018-05-21T03:35:30.404Z,14.47
2018-05-21T03:36:10.958Z,14.55
2018-05-21T03:36:51.542Z,14.5
2018-05-21T03:37:32.100Z,14.58
2018-05-21T03:38:12.672Z,14.5
2018-05-21T03:38:53.245Z,14.58
2018-05-21T03:39:33.821Z,14.53
2018-05-21T03:40:14.382Z,14.51
2018-05-21T03:40:54.967Z,14.53
2018-05-21T03:41:35.525Z,14.53
2018-05-21T03:42:16.139Z,14.43
2018-05-21T03:42:56.692Z,14.37
2018-05-21T03:43:37.253Z,14.36
2018-05-21T03:44:17.796Z,14.37
2018-05-21T03:44:58.362Z,14.36
2018-05-21T03:45:38.922Z,14.35
2018-05-21T03:46:19.497Z,14.4
2018-05-21T03:47:00.050Z,14.36
2018-05-21T03:47:40.623Z,14.37
2018-05-21T03:48:21.208Z,14.48
2018-05-21T03:49:01.749Z,14.36
2018-05-21T03:49:42.305Z,14.37
2018-05-21T03:50:22.854Z,14.41
2018-05-21T03:51:03.404Z,14.37
2018-05-21T03:51:43.954Z,14.37
2018-05-21T03:52:24.524Z,14.36
2018-05-21T03:53:05.053Z,14.41
2018-05-21T03:53:45.599Z,14.35
2018-05-21T03:54:26.156Z,14.44
2018-05-21T03:55:06.702Z,14.45
2018-05-21T03:55:47.270Z,14.41
2018-05-21T03:56:27.834Z,14.35
2018-05-21T03:57:08.421Z,14.41
2018-05-21T03:57:48.972Z,14.43
2018-05-21T03:58:29.574Z,14.41
2018-05-21T03:59:10.122Z,14.43
2018-05-21T03:59:50.679Z,14.41
2018-05-21T04:00:31.225Z,14.41
2018-05-21T04:01:11.836Z,14.36
2018-05-21T04:01:52.413Z,14.4
2018-05-21T04:02:32.976Z,14.32
2018-05-21T04:03:13.568Z,14.45
2018-05-21T04:03:54.132Z,14.32
2018-05-21T04:04:34.768Z,14.4
2018-05-21T04:05:15.263Z,14.35
2018-05-21T04:05:55.826Z,14.37
2018-05-21T04:06:36.378Z,14.32
2018-05-21T04:07:16.930Z,14.33
2018-05-21T04:07:57.503Z,14.43
2018-05-21T04:08:38.075Z,14.32
2018-05-21T04:09:18.645Z,14.35
2018-05-21T04:09:59.215Z,14.3
2018-05-21T04:10:39.768Z,14.3
2018-05-21T04:11:20.328Z,14.33
2018-05-21T04:12:00.909Z,14.33
2018-05-21T04:12:41.458Z,14.25
2018-05-21T04:13:22.018Z,14.33
2018-05-21T04:14:02.577Z,14.25
2018-05-21T04:14:43.134Z,14.33
2018-05-21T04:15:23.723Z,14.3
2018-05-21T04:16:04.298Z,14.37
2018-05-21T04:16:44.828Z,14.3
2018-05-21T04:17:25.382Z,14.36
2018-05-21T04:18:05.943Z,14.33
2018-05-21T04:18:46.537Z,14.36
2018-05-21T04:19:27.039Z,14.3
2018-05-21T04:20:07.588Z,14.36
2018-05-21T04:20:48.169Z,14.35
2018-05-21T04:21:28.737Z,14.36
2018-05-21T04:22:09.323Z,14.32
2018-05-21T04:22:49.888Z,14.41
2018-05-21T04:23:30.466Z,14.36
2018-05-21T04:24:11.027Z,14.4
2018-05-21T04:24:51.600Z,14.37
2018-05-21T04:25:32.217Z,14.43
2018-05-21T04:26:12.746Z,14.33
2018-05-21T04:26:53.298Z,14.33
2018-05-21T04:27:33.854Z,14.35
2018-05-21T04:28:14.436Z,14.43
2018-05-21T04:28:54.987Z,14.36
2018-05-21T04:29:35.560Z,14.45
2018-05-21T04:30:16.125Z,14.48
2018-05-21T04:30:56.681Z,14.45
2018-05-21T04:31:37.246Z,14.4
2018-05-21T04:32:17.821Z,14.41
2018-05-21T04:32:58.364Z,14.33
2018-05-21T04:33:38.936Z,14.4
2018-05-21T04:34:19.502Z,14.35
2018-05-21T04:35:00.073Z,14.44
2018-05-21T04:35:40.645Z,14.41
2018-05-21T04:36:21.217Z,14.47
2018-05-21T04:37:01.868Z,14.47
2018-05-21T04:37:42.328Z,14.37
2018-05-21T04:38:22.915Z,14.41
2018-05-21T04:39:03.510Z,14.48
2018-05-21T04:39:44.068Z,14.5
2018-05-21T04:40:24.625Z,14.47
2018-05-21T04:41:05.168Z,14.48
2018-05-21T04:41:45.723Z,14.51
2018-05-21T04:42:26.321Z,14.54
2018-05-21T04:43:06.898Z,14.54
2018-05-21T04:43:47.444Z,14.48
2018-05-21T04:44:28.008Z,14.51
2018-05-21T04:45:08.563Z,14.54
2018-05-21T04:45:49.144Z,14.62
2018-05-21T04:46:29.689Z,14.5
2018-05-21T04:47:10.265Z,14.53
2018-05-21T04:47:50.826Z,14.5
2018-05-21T04:48:31.395Z,14.44
2018-05-21T04:49:11.968Z,14.55
2018-05-21T04:49:52.529Z,14.5
2018-05-21T04:50:33.080Z,14.59
2018-05-21T04:51:13.673Z,14.5
2018-05-21T04:51:54.185Z,14.43
2018-05-21T04:52:34.739Z,14.47
2018-05-21T04:53:15.322Z,14.51
2018-05-21T04:53:55.902Z,14.55
2018-05-21T04:54:36.458Z,14.53
2018-05-21T04:55:17.006Z,14.51
2018-05-21T04:55:57.563Z,14.51
2018-05-21T04:56:38.143Z,14.53
2018-05-21T04:57:18.721Z,14.65
2018-05-21T04:57:59.264Z,14.54
2018-05-21T04:58:39.806Z,14.5
2018-05-21T04:59:20.395Z,14.54
2018-05-21T05:00:00.964Z,14.6
2018-05-21T05:00:41.530Z,14.51
2018-05-21T05:01:22.098Z,14.65
2018-05-21T05:02:02.657Z,14.59
2018-05-21T05:02:43.282Z,14.59
2018-05-21T05:03:23.862Z,14.66
2018-05-21T05:04:04.420Z,14.68
2018-05-21T05:04:44.973Z,14.68
2018-05-21T05:05:25.540Z,14.65
2018-05-21T05:06:06.095Z,14.7
2018-05-21T05:06:46.690Z,14.68
2018-05-21T05:07:27.258Z,14.65
2018-05-21T05:08:07.836Z,14.7
2018-05-21T05:08:48.413Z,14.7
2018-05-21T05:09:29.001Z,14.68
2018-05-21T05:10:09.755Z,14.72
2018-05-21T05:10:50.308Z,14.72
2018-05-21T05:11:30.874Z,14.69
2018-05-21T05:12:11.457Z,14.72
2018-05-21T05:12:52.019Z,14.66
2018-05-21T05:13:32.563Z,14.81
2018-05-21T05:14:13.133Z,14.78
2018-05-21T05:14:53.697Z,14.86
2018-05-21T05:15:34.259Z,14.84
2018-05-21T05:16:14.836Z,14.88
2018-05-21T05:16:55.399Z,14.91
2018-05-21T05:17:35.949Z,14.88
2018-05-21T05:18:16.527Z,14.89
2018-05-21T05:18:57.115Z,14.88
2018-05-21T05:19:37.659Z,14.91
2018-05-21T05:20:18.229Z,14.91
2018-05-21T05:20:58.853Z,14.96
2018-05-21T05:21:39.376Z,15
2018-05-21T05:22:19.943Z,15.04
2018-05-21T05:23:00.517Z,15.1
2018-05-21T05:23:41.075Z,15.18
2018-05-21T05:24:21.628Z,15.14
2018-05-21T05:25:02.184Z,15.15
2018-05-21T05:25:42.768Z,15.22
2018-05-21T05:26:23.329Z,15.28
2018-05-21T05:27:03.884Z,15.31
2018-05-21T05:27:44.468Z,15.36
2018-05-21T05:28:25.019Z,15.43
2018-05-21T05:29:05.588Z,15.51
2018-05-21T05:29:46.147Z,15.44
2018-05-21T05:30:26.785Z,15.44
2018-05-21T05:31:07.340Z,15.62
2018-05-21T05:31:47.909Z,15.65
2018-05-21T05:32:28.470Z,15.75
2018-05-21T05:33:09.040Z,15.77
2018-05-21T05:33:49.600Z,15.92
2018-05-21T05:34:30.176Z,16
2018-05-21T05:35:10.742Z,15.97
2018-05-21T05:35:51.292Z,16.13
2018-05-21T05:36:31.850Z,16.29
2018-05-21T05:37:12.430Z,16.32
2018-05-21T05:37:52.980Z,16.41
2018-05-21T05:38:33.551Z,16.51
2018-05-21T05:39:14.119Z,16.57
2018-05-21T05:39:54.689Z,16.61
2018-05-21T05:40:35.274Z,16.64
2018-05-21T05:41:15.832Z,16.76
2018-05-21T05:41:56.409Z,16.89
2018-05-21T05:42:36.944Z,16.93
2018-05-21T05:43:17.522Z,17.06
2018-05-21T05:43:58.093Z,17.08
2018-05-21T05:44:38.676Z,17.19
2018-05-21T05:45:19.225Z,17.29
2018-05-21T05:45:59.796Z,17.41
2018-05-21T05:46:40.380Z,17.48
2018-05-21T05:47:20.966Z,17.64
2018-05-21T05:48:01.650Z,17.78
2018-05-21T05:48:42.297Z,17.71
2018-05-21T05:49:22.811Z,17.9
2018-05-21T05:50:03.395Z,17.95
2018-05-21T05:50:43.953Z,18.11
2018-05-21T05:51:24.518Z,18.19
2018-05-21T05:52:05.077Z,18.34
2018-05-21T05:52:45.679Z,18.34
2018-05-21T05:53:26.282Z,18.34
2018-05-21T05:54:06.858Z,18.28
2018-05-21T05:54:47.439Z,18.41
2018-05-21T05:55:28.016Z,18.43
2018-05-21T05:56:08.653Z,18.43
2018-05-21T05:56:49.213Z,18.53
2018-05-21T05:57:29.810Z,18.63
2018-05-21T05:58:10.375Z,18.71
2018-05-21T05:58:50.934Z,18.8
2018-05-21T05:59:31.495Z,18.77
2018-05-21T06:00:12.078Z,18.8
2018-05-21T06:00:52.670Z,18.75
2018-05-21T06:01:33.234Z,18.74
2018-05-21T06:02:13.848Z,18.7
2018-05-21T06:02:54.424Z,18.78
2018-05-21T06:03:35.010Z,18.73
2018-05-21T06:04:15.549Z,18.89
2018-05-21T06:04:56.120Z,18.9
2018-05-21T06:05:36.687Z,18.93
2018-05-21T06:06:17.259Z,19
2018-05-21T06:06:57.824Z,19.14
2018-05-21T06:07:38.389Z,19.15
2018-05-21T06:08:18.969Z,19.24
2018-05-21T06:08:59.542Z,19.31
2018-05-21T06:09:40.130Z,19.37
2018-05-21T06:10:20.685Z,19.4
2018-05-21T06:11:01.286Z,19.54
2018-05-21T06:11:41.872Z,19.58
2018-05-21T06:12:22.457Z,19.67
2018-05-21T06:13:03.026Z,19.66
2018-05-21T06:13:43.717Z,19.71
2018-05-21T06:14:24.202Z,19.77
2018-05-21T06:15:04.758Z,19.88
2018-05-21T06:15:45.399Z,19.88
2018-05-21T06:16:25.982Z,19.92
2018-05-21T06:17:06.572Z,19.96
2018-05-21T06:17:47.163Z,20
2018-05-21T06:18:27.711Z,20.06
2018-05-21T06:19:08.292Z,20.11
2018-05-21T06:19:48.879Z,20.07
2018-05-21T06:20:29.442Z,20.13
2018-05-21T06:21:10.019Z,20.24
2018-05-21T06:21:50.610Z,20.39
2018-05-21T06:22:31.180Z,20.47
2018-05-21T06:23:11.774Z,20.51
2018-05-21T06:23:52.375Z,20.59
2018-05-21T06:24:32.941Z,20.55
2018-05-21T06:25:13.516Z,20.59
2018-05-21T06:25:54.130Z,20.69
2018-05-21T06:26:34.660Z,20.72
2018-05-21T06:27:15.233Z,20.65
2018-05-21T06:27:55.811Z,20.74
2018-05-21T06:28:36.388Z,20.75
2018-05-21T06:29:16.984Z,20.8
2018-05-21T06:29:57.551Z,20.82
2018-05-21T06:30:38.122Z,20.82
2018-05-21T06:31:18.692Z,20.9
2018-05-21T06:31:59.290Z,21.06
2018-05-21T06:32:39.897Z,21.02
2018-05-21T06:33:20.505Z,21.12
2018-05-21T06:34:01.151Z,21.06
2018-05-21T06:34:41.664Z,21.15
2018-05-21T06:35:22.288Z,21.17
2018-05-21T06:36:02.891Z,21.3
2018-05-21T06:36:43.476Z,21.27
2018-05-21T06:37:24.037Z,21.18
2018-05-21T06:38:04.620Z,21.18
2018-05-21T06:38:45.177Z,21.15
2018-05-21T06:39:25.755Z,21.22
2018-05-21T06:40:06.358Z,21.24
2018-05-21T06:40:46.934Z,21.32
2018-05-21T06:41:27.516Z,21.4
2018-05-21T06:42:08.095Z,21.4
2018-05-21T06:42:48.701Z,21.48
2018-05-21T06:43:29.272Z,21.45
2018-05-21T06:44:09.849Z,21.57
2018-05-21T06:44:50.450Z,21.51
2018-05-21T06:45:31.261Z,21.6
2018-05-21T06:46:11.824Z,21.69
2018-05-21T06:46:52.422Z,21.79
2018-05-21T06:47:33.102Z,21.91
2018-05-21T06:48:13.588Z,21.92
2018-05-21T06:48:54.166Z,21.93
2018-05-21T06:49:34.750Z,21.92
2018-05-21T06:50:15.342Z,21.92
2018-05-21T06:50:55.946Z,22.04
2018-05-21T06:51:36.526Z,21.99
2018-05-21T06:52:17.113Z,22.04
2018-05-21T06:52:57.663Z,22.02
2018-05-21T06:53:38.257Z,22.08
2018-05-21T06:54:18.868Z,22.18
2018-05-21T06:54:59.456Z,22.22
2018-05-21T06:55:40.031Z,22.23
2018-05-21T06:56:20.603Z,22.38
2018-05-21T06:57:01.247Z,22.35
2018-05-21T06:57:41.808Z,22.33
2018-05-21T06:58:22.444Z,22.3
2018-05-21T06:59:03.009Z,22.35
2018-05-21T06:59:43.604Z,22.28
2018-05-21T07:00:24.193Z,22.32
2018-05-21T07:01:04.782Z,22.44
2018-05-21T07:01:45.442Z,22.41
2018-05-21T07:02:26.052Z,22.47
2018-05-21T07:03:06.636Z,22.48
2018-05-21T07:03:47.308Z,22.6
2018-05-21T07:04:27.925Z,22.66
2018-05-21T07:05:08.783Z,22.68
2018-05-21T07:05:49.285Z,22.62
2018-05-21T07:06:29.896Z,22.63
2018-05-21T07:07:10.451Z,22.69
2018-05-21T07:07:51.147Z,22.85
2018-05-21T07:08:31.718Z,22.83
2018-05-21T07:09:12.298Z,22.9
2018-05-21T07:09:54.991Z,22.87
2018-05-21T07:10:35.970Z,23.02
2018-05-21T07:11:17.036Z,23.02
2018-05-21T07:11:57.625Z,23.06
2018-05-21T07:12:38.200Z,23.1
2018-05-21T07:13:18.766Z,23.05
2018-05-21T07:13:59.622Z,23.13
2018-05-21T07:14:40.187Z,23.08
2018-05-21T07:15:20.771Z,23.03
2018-05-21T07:16:01.536Z,23.02
2018-05-21T07:16:42.138Z,22.99
2018-05-21T07:17:22.738Z,22.94
2018-05-21T07:18:03.333Z,23.06
2018-05-21T07:18:43.888Z,23.08
2018-05-21T07:19:24.471Z,23.18
2018-05-21T07:20:05.038Z,23.18
2018-05-21T07:20:45.623Z,23.03
2018-05-21T07:21:26.193Z,23.05
2018-05-21T07:22:06.770Z,23.06
2018-05-21T07:22:47.352Z,23.08
2018-05-21T07:23:27.926Z,22.96
2018-05-21T07:24:08.663Z,22.9
2018-05-21T07:24:49.418Z,22.9
2018-05-21T07:25:30.003Z,22.91
2018-05-21T07:26:10.666Z,22.94
2018-05-21T07:26:51.254Z,22.84
2018-05-21T07:27:31.854Z,22.96
2018-05-21T07:28:12.416Z,22.98
2018-05-21T07:28:52.976Z,23
2018-05-21T07:29:33.574Z,23.12
2018-05-21T07:30:14.174Z,23.09
2018-05-21T07:30:54.754Z,23.2
2018-05-21T07:31:35.458Z,23.32
2018-05-21T07:32:15.922Z,23.37
2018-05-21T07:32:56.520Z,23.39
2018-05-21T07:33:37.076Z,23.4
2018-05-21T07:34:17.674Z,23.48
2018-05-21T07:34:58.235Z,23.48
2018-05-21T07:35:38.804Z,23.5
2018-05-21T07:36:19.362Z,23.55
2018-05-21T07:36:59.969Z,23.59
2018-05-21T07:37:40.536Z,23.56
2018-05-21T07:38:21.116Z,23.59
2018-05-21T07:39:01.695Z,23.62
2018-05-21T07:39:42.280Z,23.59
2018-05-21T07:40:22.871Z,23.54
2018-05-21T07:41:03.489Z,23.48
2018-05-21T07:41:44.063Z,23.51
2018-05-21T07:42:25.408Z,23.51
2018-05-21T07:43:06.076Z,23.55
2018-05-21T07:43:46.821Z,23.63
2018-05-21T07:44:27.499Z,23.63
2018-05-21T07:45:08.198Z,23.63
2018-05-21T07:45:48.886Z,23.65
2018-05-21T07:46:29.440Z,23.71
2018-05-21T07:47:10.026Z,23.69
2018-05-21T07:47:50.654Z,23.76
2018-05-21T07:48:31.259Z,23.68
2018-05-21T07:49:11.822Z,23.76
2018-05-21T07:49:52.427Z,23.73
2018-05-21T07:50:33.008Z,23.76
2018-05-21T07:51:13.671Z,23.71
2018-05-21T07:51:54.431Z,23.77
2018-05-21T07:52:35.014Z,23.65
2018-05-21T07:53:15.578Z,23.65
2018-05-21T07:53:56.168Z,23.55
2018-05-21T07:54:36.761Z,23.55
2018-05-21T07:55:17.527Z,23.56
2018-05-21T07:55:58.474Z,23.66
2018-05-21T07:56:39.216Z,23.58
2018-05-21T07:57:19.946Z,23.68
2018-05-21T07:58:00.873Z,23.61
2018-05-21T07:58:41.758Z,23.68
2018-05-21T07:59:22.591Z,23.62
2018-05-21T08:00:03.315Z,23.66
2018-05-21T08:00:43.894Z,23.63
2018-05-21T08:01:24.468Z,23.65
2018-05-21T08:02:05.030Z,23.65
2018-05-21T08:02:45.645Z,23.76
2018-05-21T08:03:26.257Z,23.74
2018-05-21T08:04:06.858Z,23.74
2018-05-21T08:04:47.452Z,23.68
2018-05-21T08:05:28.089Z,23.76
2018-05-21T08:06:08.665Z,23.65
2018-05-21T08:06:49.243Z,23.66
2018-05-21T08:07:29.807Z,23.55
2018-05-21T08:08:10.407Z,23.59
2018-05-21T08:08:51.009Z,23.51
2018-05-21T08:09:31.540Z,23.47
2018-05-21T08:10:12.178Z,23.46
2018-05-21T08:10:52.754Z,23.44
2018-05-21T08:11:33.342Z,23.39
2018-05-21T08:12:14.017Z,23.5
2018-05-21T08:12:54.505Z,23.4
2018-05-21T08:13:35.103Z,23.44
2018-05-21T08:14:15.648Z,23.5
2018-05-21T08:14:56.334Z,23.4
2018-05-21T08:15:36.885Z,23.32
2018-05-21T08:16:17.476Z,23.32
2018-05-21T08:16:58.030Z,23.21
2018-05-21T08:17:38.607Z,23.2
2018-05-21T08:18:19.160Z,23.17
2018-05-21T08:18:59.728Z,23.12
2018-05-21T08:19:43.290Z,23.1
2018-05-21T08:20:22.008Z,23.12
2018-05-21T08:21:02.579Z,23.08
2018-05-21T08:21:43.137Z,23.05
2018-05-21T08:22:23.734Z,22.99
2018-05-21T08:23:04.389Z,23.03
2018-05-21T08:23:44.956Z,23
2018-05-21T08:24:25.524Z,23.08
2018-05-21T08:25:06.074Z,23.12
2018-05-21T08:25:46.652Z,23.02
2018-05-21T08:26:27.248Z,23.08
2018-05-21T08:27:07.820Z,23.12
2018-05-21T08:27:48.387Z,23.18
2018-05-21T08:28:28.970Z,23.2
2018-05-21T08:29:09.565Z,23.17
2018-05-21T08:29:50.143Z,23.23
2018-05-21T08:30:30.735Z,23.21
2018-05-21T08:31:11.312Z,23.13
2018-05-21T08:31:51.872Z,23.18
2018-05-21T08:32:32.459Z,23.09
2018-05-21T08:33:13.171Z,23.09
2018-05-21T08:33:53.786Z,23.2
2018-05-21T08:34:34.387Z,23.13
2018-05-21T08:35:14.938Z,23.21
2018-05-21T08:35:55.514Z,23.24
2018-05-21T08:36:36.092Z,23.36
2018-05-21T08:37:16.720Z,23.24
2018-05-21T08:37:57.307Z,23.37
2018-05-21T08:38:37.875Z,23.34
2018-05-21T08:39:18.450Z,23.36
2018-05-21T08:39:59.004Z,23.34
2018-05-21T08:40:39.583Z,23.27
2018-05-21T08:41:20.162Z,23.37
2018-05-21T08:42:00.725Z,23.27
2018-05-21T08:42:41.306Z,23.27
2018-05-21T08:43:21.869Z,23.24
2018-05-21T08:44:04.235Z,23.2
2018-05-21T08:44:44.792Z,23.31
2018-05-21T08:45:25.370Z,23.37